createdAt,value
2019-01-31T00:00:53.028Z,179.13
2019-01-31T00:03:47.318Z,192.10
2019-01-31T00:06:41.157Z,181.00
2019-01-31T00:09:51.854Z,183.87
2019-01-31T00:12:49.839Z,192.13
2019-01-31T00:15:36.326Z,182.63
2019-01-31T00:18:46.133Z,175.60
2019-01-31T00:22:02.547Z,178.30
2019-01-31T00:24:58.264Z,187.00
2019-01-31T00:27:57.086Z,184.97
2019-01-31T00:31:03.618Z,183.17
2019-01-31T00:34:04.697Z,178.27
2019-01-31T00:37:15.823Z,183.97
2019-01-31T00:40:26.720Z,189.63
2019-01-31T00:43:47.485Z,184.77
2019-01-31T00:47:25.398Z,167.37
2019-01-31T00:50:38.268Z,160.50
2019-01-31T00:53:46.542Z,174.17
2019-01-31T00:56:59.116Z,158.80
2019-01-31T01:00:02.940Z,163.60
2019-01-31T01:03:15.527Z,167.63
2019-01-31T01:06:46.848Z,160.00
2019-01-31T01:09:57.708Z,155.80
2019-01-31T01:13:03.101Z,180.53
2019-01-31T01:16:18.045Z,209.67
2019-01-31T01:19:22.652Z,182.97
2019-01-31T01:22:30.014Z,168.60
2019-01-31T01:25:54.985Z,175.50
2019-01-31T01:29:22.810Z,163.90
2019-01-31T01:33:02.457Z,179.30
2019-01-31T01:36:30.213Z,160.10
2019-01-31T01:39:33.212Z,158.90
2019-01-31T01:42:37.502Z,169.33
2019-01-31T01:45:54.684Z,170.40
2019-01-31T01:48:57.902Z,179.23
2019-01-31T01:52:17.092Z,163.77
2019-01-31T01:55:07.104Z,172.57
2019-01-31T01:58:21.195Z,151.33
2019-01-31T02:01:55.488Z,162.47
2019-01-31T02:05:15.465Z,171.60
2019-01-31T02:08:36.310Z,160.87
2019-01-31T02:12:02.060Z,164.73
2019-01-31T02:15:37.234Z,184.90
2019-01-31T02:18:45.028Z,172.97
2019-01-31T02:22:10.286Z,181.77
2019-01-31T02:25:05.993Z,192.00
2019-01-31T02:28:03.939Z,198.30
2019-01-31T02:31:10.116Z,188.73
2019-01-31T02:34:19.417Z,183.60
2019-01-31T02:37:15.779Z,167.17
2019-01-31T02:40:24.077Z,166.53
2019-01-31T02:43:15.754Z,163.17
2019-01-31T02:46:54.908Z,188.73
2019-01-31T02:49:55.712Z,216.07
2019-01-31T02:53:22.122Z,216.90
2019-01-31T02:56:22.257Z,191.30
2019-01-31T03:11:24.653Z,158.17
2019-01-31T03:14:54.974Z,168.60
2019-01-31T03:22:13.847Z,193.57
2019-01-31T03:25:27.508Z,194.23
2019-01-31T03:28:41.600Z,182.07
2019-01-31T03:31:56.848Z,164.43
2019-01-31T03:35:32.331Z,159.87
2019-01-31T03:38:46.324Z,162.20
2019-01-31T03:41:54.533Z,183.17
2019-01-31T03:44:58.757Z,212.40
2019-01-31T03:48:14.522Z,193.30
2019-01-31T03:51:36.526Z,206.10
2019-01-31T03:54:57.399Z,215.23
2019-01-31T03:58:26.182Z,237.50
2019-01-31T04:01:55.254Z,250.50
2019-01-31T04:05:07.531Z,236.27
2019-01-31T04:07:54.643Z,246.60
2019-01-31T04:10:33.394Z,357.83
2019-01-31T04:13:47.484Z,314.07
2019-01-31T04:17:03.210Z,255.63
2019-01-31T04:19:47.345Z,289.47
2019-01-31T04:23:28.996Z,462.30
2019-01-31T04:26:36.722Z,276.07
2019-01-31T04:30:02.758Z,355.67
2019-01-31T04:33:11.895Z,298.03
2019-01-31T04:55:11.611Z,238.60
2019-01-31T05:05:41.769Z,279.53
2019-01-31T05:08:45.673Z,326.53
2019-01-31T05:12:09.880Z,349.33
2019-01-31T05:18:36.233Z,242.70
2019-01-31T05:21:38.912Z,256.50
2019-01-31T05:24:54.456Z,431.03
2019-01-31T05:27:53.834Z,398.27
2019-01-31T05:47:09.549Z,215.43
2019-01-31T05:49:48.187Z,313.87
2019-01-31T05:52:26.517Z,252.93
2019-01-31T05:55:06.934Z,271.37
2019-01-31T05:57:50.186Z,275.60
2019-01-31T06:00:38.150Z,231.57
2019-01-31T06:03:17.652Z,217.70
2019-01-31T06:06:00.001Z,204.83
2019-01-31T06:08:41.450Z,196.27
2019-01-31T06:11:22.228Z,231.90
2019-01-31T06:14:02.544Z,228.00
2019-01-31T06:16:42.007Z,205.03
2019-01-31T06:19:24.173Z,200.27
2019-01-31T06:22:04.648Z,195.37
2019-01-31T06:24:47.093Z,183.90
2019-01-31T06:27:26.768Z,187.03
2019-01-31T06:30:06.445Z,185.20
2019-01-31T06:32:51.321Z,194.07
2019-01-31T06:35:33.609Z,159.30
2019-01-31T06:38:19.817Z,158.23
2019-01-31T06:41:01.421Z,140.43
2019-01-31T06:43:40.925Z,141.10
2019-01-31T06:46:26.316Z,136.90
2019-01-31T06:49:12.647Z,132.63
2019-01-31T06:51:51.856Z,145.73
2019-01-31T06:54:40.143Z,131.30
2019-01-31T06:57:20.557Z,131.93
2019-01-31T07:00:03.741Z,138.07
2019-01-31T07:02:45.628Z,129.63
2019-01-31T07:05:23.160Z,132.20
2019-01-31T07:08:04.711Z,128.70
2019-01-31T07:10:50.134Z,131.33
2019-01-31T07:13:29.521Z,125.37
2019-01-31T07:16:11.726Z,129.83
2019-01-31T07:18:57.415Z,129.97
2019-01-31T07:21:36.215Z,129.37
2019-01-31T07:24:20.719Z,144.10
2019-01-31T07:27:05.444Z,139.57
2019-01-31T07:29:54.186Z,119.63
2019-01-31T07:32:38.284Z,116.47
2019-01-31T07:35:22.680Z,124.70
2019-01-31T07:38:06.617Z,125.80
2019-01-31T07:40:48.739Z,119.00
2019-01-31T07:43:26.508Z,121.97
2019-01-31T07:46:11.761Z,115.27
2019-01-31T07:48:59.319Z,115.60
2019-01-31T07:51:43.694Z,116.07
2019-01-31T07:54:23.653Z,116.57
2019-01-31T07:57:08.183Z,109.70
2019-01-31T07:59:48.581Z,99.77
2019-01-31T08:02:35.211Z,93.03
2019-01-31T08:05:16.053Z,90.43
2019-01-31T08:07:57.969Z,94.57
2019-01-31T08:10:51.280Z,86.73
2019-01-31T08:13:30.087Z,92.10
2019-01-31T08:16:48.506Z,84.50
2019-01-31T08:19:32.836Z,81.57
2019-01-31T08:22:11.435Z,84.40
2019-01-31T08:33:10.866Z,77.40
2019-01-31T08:35:50.639Z,85.63
2019-01-31T08:38:31.233Z,75.27
2019-01-31T08:41:15.790Z,79.33
2019-01-31T08:43:54.612Z,70.93
2019-01-31T08:46:32.638Z,75.10
2019-01-31T08:49:12.419Z,75.73
2019-01-31T08:51:50.252Z,71.20
2019-01-31T08:54:33.299Z,75.17
2019-01-31T08:57:16.551Z,71.83
2019-01-31T08:59:55.815Z,75.60
2019-01-31T09:02:39.058Z,102.27
2019-01-31T09:05:20.432Z,73.87
2019-01-31T09:08:21.159Z,69.57
2019-01-31T09:11:02.696Z,68.93
2019-01-31T09:13:42.758Z,70.10
2019-01-31T09:16:24.448Z,66.67
2019-01-31T09:19:08.290Z,65.90
2019-01-31T09:22:05.115Z,69.57
2019-01-31T09:25:27.126Z,70.03
2019-01-31T09:28:52.115Z,66.27
2019-01-31T09:32:07.163Z,76.97
2019-01-31T09:35:05.455Z,81.13
2019-01-31T09:38:24.340Z,83.37
2019-01-31T09:41:31.418Z,78.80
2019-01-31T09:44:41.435Z,78.27
2019-01-31T09:47:57.203Z,81.97
2019-01-31T09:51:23.611Z,88.37
2019-01-31T09:54:13.780Z,85.30
2019-01-31T09:57:43.466Z,90.73
2019-01-31T10:00:56.382Z,116.67
2019-01-31T10:04:22.205Z,203.33
2019-01-31T10:07:34.188Z,122.50
2019-01-31T10:11:08.290Z,112.23
2019-01-31T10:14:33.967Z,105.93
2019-01-31T10:17:44.372Z,115.23
2019-01-31T10:21:07.330Z,117.73
2019-01-31T10:23:55.531Z,121.90
2019-01-31T10:27:09.464Z,136.57
2019-01-31T10:30:14.949Z,151.93
2019-01-31T10:33:20.937Z,130.53
2019-01-31T10:36:27.027Z,158.90
2019-01-31T10:39:25.883Z,171.97
2019-01-31T10:42:31.982Z,137.60
2019-01-31T10:45:42.297Z,229.00
2019-01-31T10:48:50.077Z,244.87
2019-01-31T10:52:01.136Z,167.40
2019-01-31T10:55:27.674Z,204.20
2019-01-31T10:58:57.807Z,457.67
2019-01-31T11:02:32.274Z,726.43
2019-01-31T11:05:42.146Z,677.33
2019-01-31T11:08:41.805Z,351.73
2019-01-31T11:12:03.454Z,231.93
2019-01-31T11:15:00.351Z,147.93
2019-01-31T11:17:59.477Z,126.83
2019-01-31T11:21:11.511Z,116.53
2019-01-31T11:24:20.295Z,127.00
2019-01-31T11:28:05.441Z,114.57
2019-01-31T11:31:37.852Z,137.03
2019-01-31T11:34:41.304Z,146.70
2019-01-31T11:37:51.530Z,167.07
2019-01-31T11:40:57.289Z,122.37
2019-01-31T11:44:23.108Z,133.13
2019-01-31T11:47:39.586Z,142.23
2019-01-31T11:50:48.427Z,138.03
2019-01-31T11:54:05.781Z,117.90
2019-01-31T11:57:11.934Z,110.00
2019-01-31T12:00:00.173Z,133.80
2019-01-31T12:02:55.073Z,183.73
2019-01-31T12:12:19.424Z,111.17
2019-01-31T12:15:03.691Z,100.83
2019-01-31T12:17:42.194Z,100.43
2019-01-31T12:20:25.149Z,95.17
2019-01-31T12:23:24.721Z,98.13
2019-01-31T12:26:20.217Z,95.83
2019-01-31T12:29:00.974Z,89.47
2019-01-31T12:31:49.126Z,88.43
2019-01-31T12:34:44.447Z,97.90
2019-01-31T12:37:24.257Z,89.50
2019-01-31T12:40:11.466Z,103.13
2019-01-31T12:42:51.385Z,106.07
2019-01-31T12:45:32.595Z,128.17
2019-01-31T12:48:27.289Z,225.37
2019-01-31T12:51:07.234Z,167.00
2019-01-31T12:54:00.391Z,198.90
2019-01-31T12:56:46.145Z,128.57
2019-01-31T12:59:46.930Z,124.47
2019-01-31T13:02:39.946Z,110.50
2019-01-31T13:05:24.882Z,139.97
2019-01-31T13:08:29.425Z,349.30
2019-01-31T13:11:34.211Z,141.07
2019-01-31T13:14:37.366Z,158.10
2019-01-31T13:17:24.226Z,112.37
2019-01-31T13:20:07.211Z,101.20
2019-01-31T13:22:51.431Z,106.33
2019-01-31T13:25:48.713Z,115.77
2019-01-31T13:28:39.044Z,115.83
2019-01-31T13:31:18.625Z,298.47
2019-01-31T13:33:58.453Z,278.40
2019-01-31T13:36:45.375Z,163.90
2019-01-31T13:39:31.562Z,136.67
2019-01-31T13:42:16.350Z,267.93
2019-01-31T13:44:58.592Z,162.67
2019-01-31T13:47:41.368Z,157.47
2019-01-31T13:50:43.637Z,154.97
2019-01-31T13:53:27.999Z,105.83
2019-01-31T13:56:21.044Z,117.07
2019-01-31T13:59:49.659Z,112.90
2019-01-31T14:03:10.339Z,117.60
2019-01-31T14:07:04.818Z,114.07
2019-01-31T14:10:01.944Z,115.43
2019-01-31T14:13:06.621Z,120.43
2019-01-31T14:19:40.926Z,125.07
2019-01-31T14:22:55.741Z,122.17
2019-01-31T14:25:42.155Z,126.47
2019-01-31T14:28:29.548Z,129.87
2019-01-31T14:31:20.633Z,131.23
2019-01-31T14:34:06.261Z,132.47
2019-01-31T14:37:14.806Z,134.17
2019-01-31T14:40:32.164Z,134.77
2019-01-31T14:43:40.691Z,439.63
2019-01-31T14:46:34.937Z,247.53
2019-01-31T14:49:32.092Z,163.60
2019-01-31T14:52:34.026Z,141.17
2019-01-31T14:55:31.423Z,142.20
2019-01-31T14:58:59.255Z,127.37
2019-01-31T15:01:51.053Z,131.27
2019-01-31T15:04:57.154Z,133.57
2019-01-31T15:08:00.270Z,294.53
2019-01-31T15:11:00.336Z,191.93
2019-01-31T15:13:45.640Z,152.93
2019-01-31T15:16:29.484Z,139.37
2019-01-31T15:19:17.312Z,136.20
2019-01-31T15:22:29.210Z,135.53
2019-01-31T15:25:13.991Z,139.63
2019-01-31T15:31:33.481Z,135.00
2019-01-31T15:34:25.748Z,128.67
2019-01-31T15:37:23.952Z,127.17
2019-01-31T15:43:45.940Z,125.47
2019-01-31T15:46:40.280Z,129.50
2019-01-31T15:49:43.854Z,114.43
2019-01-31T15:52:49.422Z,129.67
2019-01-31T15:55:39.515Z,138.47
2019-01-31T15:58:32.533Z,140.90
2019-01-31T16:01:19.783Z,144.83
2019-01-31T16:04:23.818Z,146.77
2019-01-31T16:07:03.333Z,142.83
2019-01-31T16:09:50.841Z,150.47
2019-01-31T16:12:46.957Z,147.97
2019-01-31T16:15:52.504Z,136.27
2019-01-31T16:18:35.057Z,135.10
2019-01-31T16:21:34.354Z,136.23
2019-01-31T16:24:28.066Z,136.27
2019-01-31T16:27:28.583Z,137.73
2019-01-31T16:30:42.572Z,143.50
2019-01-31T16:33:35.588Z,140.13
2019-01-31T16:36:43.225Z,133.13
2019-01-31T16:39:29.439Z,134.23
2019-01-31T16:42:14.752Z,134.27
2019-01-31T16:45:26.139Z,121.53
2019-01-31T16:48:33.410Z,132.57
2019-01-31T16:51:21.475Z,128.97
2019-01-31T16:54:02.990Z,129.17
2019-01-31T16:56:49.798Z,126.67
2019-01-31T16:59:56.103Z,133.47
2019-01-31T17:02:49.516Z,124.13
2019-01-31T17:05:37.151Z,126.27
2019-01-31T17:08:25.098Z,125.57
2019-01-31T17:11:08.286Z,132.47
2019-01-31T17:13:56.638Z,134.30
2019-01-31T17:16:48.047Z,131.17
2019-01-31T17:19:34.409Z,120.37
2019-01-31T17:22:16.954Z,119.23
2019-01-31T17:25:02.097Z,123.77
2019-01-31T17:27:44.529Z,116.40
2019-01-31T17:30:33.755Z,127.80
2019-01-31T17:33:15.082Z,149.33
2019-01-31T17:35:56.254Z,138.07
2019-01-31T17:38:34.707Z,124.57
2019-01-31T17:41:12.600Z,119.47
2019-01-31T17:43:53.559Z,109.97
2019-01-31T17:46:32.090Z,120.77
2019-01-31T17:49:10.504Z,115.63
2019-01-31T17:51:53.550Z,119.50
2019-01-31T17:54:32.897Z,115.87
2019-01-31T17:57:10.839Z,114.23
2019-01-31T17:59:48.625Z,112.03
2019-01-31T18:02:25.819Z,116.03
2019-01-31T18:05:03.471Z,117.67
2019-01-31T18:07:41.525Z,110.33
2019-01-31T18:10:26.186Z,100.83
2019-01-31T18:13:06.627Z,101.93
2019-01-31T18:15:45.005Z,112.70
2019-01-31T18:18:28.730Z,161.17
2019-01-31T18:21:05.605Z,110.57
2019-01-31T18:23:48.539Z,134.67
2019-01-31T18:26:25.224Z,109.83
2019-01-31T18:29:06.959Z,109.27
2019-01-31T18:31:47.346Z,119.10
2019-01-31T18:34:25.124Z,124.00
2019-01-31T18:37:05.175Z,132.00
2019-01-31T18:39:42.297Z,114.30
2019-01-31T18:42:22.989Z,116.63
2019-01-31T18:45:02.261Z,124.93
2019-01-31T18:47:43.397Z,117.17
2019-01-31T18:50:25.796Z,118.30
2019-01-31T18:53:09.900Z,119.73
2019-01-31T18:55:47.079Z,129.20
2019-01-31T18:58:26.840Z,134.87
2019-01-31T19:01:06.035Z,135.70
2019-01-31T19:03:44.709Z,145.97
2019-01-31T19:06:22.102Z,155.10
2019-01-31T19:08:59.663Z,159.47
2019-01-31T19:11:36.451Z,157.80
2019-01-31T19:14:14.452Z,162.20
2019-01-31T19:16:51.679Z,154.20
2019-01-31T19:19:32.271Z,154.57
2019-01-31T19:22:11.783Z,155.03
2019-01-31T19:24:55.680Z,158.23
2019-01-31T19:27:36.511Z,158.73
2019-01-31T19:30:23.591Z,157.53
2019-01-31T19:33:02.212Z,170.13
2019-01-31T19:35:39.535Z,160.43
2019-01-31T19:38:17.220Z,157.27
2019-01-31T19:40:54.836Z,179.53
2019-01-31T19:43:33.749Z,175.83
2019-01-31T19:46:16.673Z,163.17
2019-01-31T19:48:50.618Z,167.10
2019-01-31T19:51:29.240Z,154.57
2019-01-31T19:54:06.736Z,166.03
2019-01-31T19:56:50.615Z,170.50
2019-01-31T19:59:28.103Z,181.97
2019-01-31T20:02:06.016Z,150.53
2019-01-31T20:04:44.984Z,159.17
2019-01-31T20:07:21.954Z,163.40
2019-01-31T20:09:58.958Z,154.17
2019-01-31T20:12:38.178Z,157.97
2019-01-31T20:15:16.175Z,161.47
2019-01-31T20:17:53.297Z,148.37
2019-01-31T20:20:31.885Z,150.67
2019-01-31T20:23:11.072Z,152.90
2019-01-31T20:25:49.975Z,148.43
2019-01-31T20:28:27.176Z,141.03
2019-01-31T20:31:04.665Z,148.90
2019-01-31T20:33:43.929Z,146.43
2019-01-31T20:36:21.606Z,138.23
2019-01-31T20:38:59.281Z,144.87
2019-01-31T20:41:37.189Z,135.37
2019-01-31T20:44:15.619Z,133.30
2019-01-31T20:46:54.485Z,125.07
2019-01-31T20:49:32.973Z,136.30
2019-01-31T20:52:11.067Z,125.00
2019-01-31T20:54:47.817Z,138.17
2019-01-31T20:57:25.031Z,137.23
2019-01-31T21:00:03.052Z,140.70
2019-01-31T21:02:42.636Z,137.33
2019-01-31T21:05:21.684Z,137.20
2019-01-31T21:07:59.172Z,129.27
2019-01-31T21:10:37.060Z,121.70
2019-01-31T21:13:14.773Z,118.70
2019-01-31T21:15:53.057Z,129.97
2019-01-31T21:18:30.774Z,123.83
2019-01-31T21:21:08.255Z,120.77
2019-01-31T21:23:46.833Z,129.27
2019-01-31T21:26:24.822Z,125.87
2019-01-31T21:29:02.445Z,122.47
2019-01-31T21:31:39.746Z,122.87
2019-01-31T21:34:18.761Z,136.83
2019-01-31T21:36:55.953Z,127.03
2019-01-31T21:39:33.777Z,131.77
2019-01-31T21:42:10.604Z,142.57
2019-01-31T21:44:49.099Z,161.07
2019-01-31T21:47:26.142Z,157.50
2019-01-31T21:50:03.616Z,155.77
2019-01-31T21:52:43.790Z,135.97
2019-01-31T21:55:21.867Z,134.93
2019-01-31T21:57:59.000Z,135.17
2019-01-31T22:00:37.730Z,129.80
2019-01-31T22:03:15.724Z,122.27
2019-01-31T22:05:52.861Z,132.97
2019-01-31T22:08:29.724Z,127.47
2019-01-31T22:11:07.124Z,132.03
2019-01-31T22:13:44.826Z,143.73
2019-01-31T22:16:22.481Z,141.50
2019-01-31T22:19:00.772Z,138.63
2019-01-31T22:21:38.085Z,128.67
2019-01-31T22:24:15.609Z,140.83
2019-01-31T22:26:52.428Z,140.13
2019-01-31T22:29:29.923Z,136.13
2019-01-31T22:32:22.440Z,139.57
2019-01-31T22:35:12.606Z,134.87
2019-01-31T22:38:01.484Z,145.07
2019-01-31T22:40:44.731Z,141.70
2019-01-31T22:43:32.426Z,137.53
2019-01-31T22:46:15.439Z,143.53
2019-01-31T22:49:10.536Z,147.63
2019-01-31T22:51:51.240Z,152.37
2019-01-31T22:54:29.110Z,151.67
2019-01-31T22:57:12.651Z,147.53
2019-01-31T23:00:14.776Z,145.97
2019-01-31T23:03:21.145Z,143.97
2019-01-31T23:06:13.225Z,129.00
2019-01-31T23:09:16.512Z,134.20
2019-01-31T23:11:57.639Z,140.30
2019-01-31T23:14:46.896Z,132.27
2019-01-31T23:17:24.589Z,139.97
2019-01-31T23:20:01.555Z,137.33
2019-01-31T23:22:38.954Z,129.53
2019-01-31T23:25:17.252Z,122.43
2019-01-31T23:27:54.509Z,129.57
2019-01-31T23:30:31.656Z,151.93
2019-01-31T23:33:10.133Z,136.33
2019-01-31T23:35:50.280Z,139.93
2019-01-31T23:38:29.225Z,139.87
2019-01-31T23:41:07.259Z,134.73
2019-01-31T23:43:45.783Z,137.97
2019-01-31T23:46:23.174Z,149.00
2019-01-31T23:49:11.484Z,141.50
2019-01-31T23:52:08.162Z,150.83
2019-01-31T23:54:46.175Z,140.53
2019-01-31T23:57:24.084Z,133.63
